In Rescue
 
Open Full Screen Window  High Contrast Mode
Wind Gusting 00 knots
08
July 01, 2022 10:28 AM EDT
Weather Information
Wind Direction
  260 °
Wind Speed
  08 kt (9 mph)
Wind Gust
  00 kt (0 mph)
Variable Wind
240°
300°
Altimeter
30.05 in
Visibility
10 SM
Temperature
29° C
84° F
Dewpoint
19° C
66° F
Humidity
55%
1hr Rain Fall
00.00 in.
24hr Rain Fall
00.00 in.
Sky Condition
Clear
VFR

METAR KMRT 011428Z AUTO 26008KT 240V300 10SM CLR 29/19 A3005 RMK AO2 T02930189

FAA Disclaimer: The data displayed is for advisory purposes only and is not to be used for flight planning or operations.